Hlavní strana
METAR-TAF:

METAR-TAF

Letiště :

Dar es Salaam, Tanzanie

zeměpisná šířka: 06-52S, zeměpisná délka: 039-12E, výška: 55 m

Aktuální stav počasí

Zpráva byla vytvořena před 2 hodinami a 8 minutami, v 16:00 UTC
Východojihovýchodní vítr 5 kt
Teplota 27°C
Vlhkost vzduchu 84%
Tlak 1012 hPa
Viditelnost 10 km a více
Skoro jasno ve výšce 1600 ft
Skoro jasno ve výšce 1700 ft, Cumulonimbus.

METAR: HTDA 241600Z 12005KT 9999 FEW016 FEW017CB 27/24 Q1012 NOSIG

Čas: 21:08 (18:08 UTC)

Předpověď počasí

Zpráva byla vytvořena před 13 hodinami a 8 minutami, v 05:00 UTC
Předpověď platná od 24 v 06 UTC do 25 v 12 UTC
Jihojihozápadní vítr 5 kt
Viditelnost 10 km a více
Polojasno ve výšce 1500 ft
Změna
od 24 v 11 UTC do 24 v 14 UTC
Polojasno ve výšce 2100 ft
Skoro jasno ve výšce 2200 ft, Cumulonimbus.

TAF: HTDA 240500Z 2406/2512 20005KT 9999 SCT015 BECMG 2411/2414 SCT021 FEW022CB

Stav a předpovědi počasí z více než 4 000 letišť (zprávy METAR a TAF).

Červené a žluté tečky na mapě představují dostupné meteorologické stanice.

Když kurzor umístíte na tečku, zobrazí se název stanice.

Pak kliknutím zobrazíte stav a předpověď počasí.

Chcete-li změnit mapu, kliknutím na zelené tlačítko se znaménkem +mapu přiblížíte, kliknutím na zelené tlačítko se znaménkem – mapu oddálíte a kliknutím na zelené šipky přejdete na sousední mapy.


METAR-TAF: